sensor_id;sensor_type;location;lat;lon;timestamp;P1;durP1;ratioP1;P2;durP2;ratioP2
59770;SDS011;45649;53.014;6.600;2023-04-24T00:00:10;0.90;;;0.90;;
59770;SDS011;45649;53.014;6.600;2023-04-24T00:02:40;0.77;;;0.70;;
59770;SDS011;45649;53.014;6.600;2023-04-24T00:05:16;1.20;;;0.93;;
59770;SDS011;45649;53.014;6.600;2023-04-24T00:07:42;0.80;;;0.80;;
59770;SDS011;45649;53.014;6.600;2023-04-24T00:10:10;1.00;;;1.00;;
59770;SDS011;45649;53.014;6.600;2023-04-24T00:12:36;0.80;;;0.80;;
59770;SDS011;45649;53.014;6.600;2023-04-24T00:15:03;0.83;;;0.80;;
59770;SDS011;45649;53.014;6.600;2023-04-24T00:17:29;1.10;;;0.70;;
59770;SDS011;45649;53.014;6.600;2023-04-24T00:19:55;0.80;;;0.80;;
59770;SDS011;45649;53.014;6.600;2023-04-24T00:22:27;0.63;;;0.63;;
59770;SDS011;45649;53.014;6.600;2023-04-24T00:24:53;0.70;;;0.70;;
59770;SDS011;45649;53.014;6.600;2023-04-24T00:27:19;0.70;;;0.70;;
59770;SDS011;45649;53.014;6.600;2023-04-24T00:29:45;0.80;;;0.80;;
59770;SDS011;45649;53.014;6.600;2023-04-24T00:32:11;1.53;;;0.90;;
59770;SDS011;45649;53.014;6.600;2023-04-24T00:34:36;0.80;;;0.80;;
59770;SDS011;45649;53.014;6.600;2023-04-24T00:37:02;0.80;;;0.80;;
59770;SDS011;45649;53.014;6.600;2023-04-24T00:39:28;0.90;;;0.90;;
59770;SDS011;45649;53.014;6.600;2023-04-24T00:41:54;0.90;;;0.90;;
59770;SDS011;45649;53.014;6.600;2023-04-24T00:44:20;0.83;;;0.83;;
59770;SDS011;45649;53.014;6.600;2023-04-24T00:46:46;0.90;;;0.90;;
59770;SDS011;45649;53.014;6.600;2023-04-24T00:49:17;1.00;;;1.00;;
59770;SDS011;45649;53.014;6.600;2023-04-24T00:51:43;0.90;;;0.90;;
59770;SDS011;45649;53.014;6.600;2023-04-24T00:54:11;0.90;;;0.90;;
59770;SDS011;45649;53.014;6.600;2023-04-24T00:56:37;1.00;;;1.00;;
59770;SDS011;45649;53.014;6.600;2023-04-24T00:59:03;0.90;;;0.90;;
59770;SDS011;45649;53.014;6.600;2023-04-24T01:01:29;0.90;;;0.90;;
59770;SDS011;45649;53.014;6.600;2023-04-24T01:03:55;1.00;;;1.00;;
59770;SDS011;45649;53.014;6.600;2023-04-24T01:06:22;1.30;;;1.30;;
59770;SDS011;45649;53.014;6.600;2023-04-24T01:08:52;1.10;;;1.10;;
59770;SDS011;45649;53.014;6.600;2023-04-24T01:11:18;1.30;;;1.30;;
59770;SDS011;45649;53.014;6.600;2023-04-24T01:13:44;1.17;;;1.17;;
59770;SDS011;45649;53.014;6.600;2023-04-24T01:16:12;1.20;;;1.20;;
59770;SDS011;45649;53.014;6.600;2023-04-24T01:18:38;1.40;;;1.30;;
59770;SDS011;45649;53.014;6.600;2023-04-24T01:21:04;1.30;;;1.30;;
59770;SDS011;45649;53.014;6.600;2023-04-24T01:23:32;1.30;;;1.30;;
59770;SDS011;45649;53.014;6.600;2023-04-24T01:25:57;1.40;;;1.40;;
59770;SDS011;45649;53.014;6.600;2023-04-24T01:28:23;1.53;;;1.50;;
59770;SDS011;45649;53.014;6.600;2023-04-24T01:30:49;1.50;;;1.50;;
59770;SDS011;45649;53.014;6.600;2023-04-24T01:33:15;1.80;;;1.70;;
59770;SDS011;45649;53.014;6.600;2023-04-24T01:35:41;1.83;;;1.73;;
59770;SDS011;45649;53.014;6.600;2023-04-24T01:38:07;1.67;;;1.67;;
59770;SDS011;45649;53.014;6.600;2023-04-24T01:40:33;2.03;;;2.00;;
59770;SDS011;45649;53.014;6.600;2023-04-24T01:42:59;2.00;;;1.90;;
59770;SDS011;45649;53.014;6.600;2023-04-24T01:45:25;2.13;;;2.03;;
59770;SDS011;45649;53.014;6.600;2023-04-24T01:47:51;2.90;;;2.40;;
59770;SDS011;45649;53.014;6.600;2023-04-24T01:50:17;2.40;;;2.30;;
59770;SDS011;45649;53.014;6.600;2023-04-24T01:52:43;2.93;;;2.83;;
59770;SDS011;45649;53.014;6.600;2023-04-24T01:55:09;3.00;;;2.90;;
59770;SDS011;45649;53.014;6.600;2023-04-24T01:57:35;2.67;;;2.57;;
59770;SDS011;45649;53.014;6.600;2023-04-24T02:00:01;3.53;;;3.23;;
59770;SDS011;45649;53.014;6.600;2023-04-24T02:02:29;3.40;;;3.30;;
59770;SDS011;45649;53.014;6.600;2023-04-24T02:04:56;3.63;;;3.53;;
59770;SDS011;45649;53.014;6.600;2023-04-24T02:07:22;3.40;;;3.30;;
59770;SDS011;45649;53.014;6.600;2023-04-24T02:09:48;4.40;;;4.10;;
59770;SDS011;45649;53.014;6.600;2023-04-24T02:12:14;4.30;;;4.10;;
59770;SDS011;45649;53.014;6.600;2023-04-24T02:14:42;4.57;;;4.20;;
59770;SDS011;45649;53.014;6.600;2023-04-24T02:17:08;5.00;;;4.63;;
59770;SDS011;45649;53.014;6.600;2023-04-24T02:19:34;4.40;;;4.20;;
59770;SDS011;45649;53.014;6.600;2023-04-24T02:22:00;4.57;;;4.17;;
59770;SDS011;45649;53.014;6.600;2023-04-24T02:24:26;5.13;;;4.83;;
59770;SDS011;45649;53.014;6.600;2023-04-24T02:26:52;4.40;;;4.20;;
59770;SDS011;45649;53.014;6.600;2023-04-24T02:29:17;4.57;;;4.20;;
59770;SDS011;45649;53.014;6.600;2023-04-24T02:31:43;4.20;;;4.00;;
59770;SDS011;45649;53.014;6.600;2023-04-24T02:34:09;4.77;;;4.57;;
59770;SDS011;45649;53.014;6.600;2023-04-24T02:36:35;5.07;;;4.77;;
59770;SDS011;45649;53.014;6.600;2023-04-24T02:39:01;4.67;;;4.47;;
59770;SDS011;45649;53.014;6.600;2023-04-24T02:41:27;4.57;;;4.30;;
59770;SDS011;45649;53.014;6.600;2023-04-24T02:44:00;4.80;;;4.60;;
59770;SDS011;45649;53.014;6.600;2023-04-24T02:46:26;4.50;;;4.30;;
59770;SDS011;45649;53.014;6.600;2023-04-24T02:48:52;4.87;;;4.67;;
59770;SDS011;45649;53.014;6.600;2023-04-24T02:51:17;4.80;;;4.50;;
59770;SDS011;45649;53.014;6.600;2023-04-24T02:53:43;4.80;;;4.50;;
59770;SDS011;45649;53.014;6.600;2023-04-24T02:56:09;4.63;;;4.33;;
59770;SDS011;45649;53.014;6.600;2023-04-24T02:58:37;4.47;;;4.27;;
59770;SDS011;45649;53.014;6.600;2023-04-24T03:01:03;3.90;;;3.70;;
59770;SDS011;45649;53.014;6.600;2023-04-24T03:03:28;4.57;;;4.27;;
59770;SDS011;45649;53.014;6.600;2023-04-24T03:05:54;4.33;;;4.03;;
59770;SDS011;45649;53.014;6.600;2023-04-24T03:08:20;4.10;;;3.90;;
59770;SDS011;45649;53.014;6.600;2023-04-24T03:10:46;4.50;;;4.27;;
59770;SDS011;45649;53.014;6.600;2023-04-24T03:13:12;4.20;;;4.00;;
59770;SDS011;45649;53.014;6.600;2023-04-24T03:15:37;4.40;;;4.10;;
59770;SDS011;45649;53.014;6.600;2023-04-24T03:18:03;4.03;;;3.83;;
59770;SDS011;45649;53.014;6.600;2023-04-24T03:20:29;4.20;;;3.93;;
59770;SDS011;45649;53.014;6.600;2023-04-24T03:22:55;3.60;;;3.40;;
59770;SDS011;45649;53.014;6.600;2023-04-24T03:25:22;3.50;;;3.40;;
59770;SDS011;45649;53.014;6.600;2023-04-24T03:27:47;3.50;;;3.40;;
59770;SDS011;45649;53.014;6.600;2023-04-24T03:30:13;3.57;;;3.37;;
59770;SDS011;45649;53.014;6.600;2023-04-24T03:32:39;3.60;;;3.40;;
59770;SDS011;45649;53.014;6.600;2023-04-24T03:35:06;3.63;;;3.43;;
59770;SDS011;45649;53.014;6.600;2023-04-24T03:37:33;3.10;;;2.90;;
59770;SDS011;45649;53.014;6.600;2023-04-24T03:39:59;3.10;;;2.90;;
59770;SDS011;45649;53.014;6.600;2023-04-24T03:42:25;3.10;;;2.90;;
59770;SDS011;45649;53.014;6.600;2023-04-24T03:44:50;2.80;;;2.70;;
59770;SDS011;45649;53.014;6.600;2023-04-24T03:47:16;2.73;;;2.63;;
59770;SDS011;45649;53.014;6.600;2023-04-24T03:49:42;3.00;;;2.80;;
59770;SDS011;45649;53.014;6.600;2023-04-24T03:52:07;2.80;;;2.60;;
59770;SDS011;45649;53.014;6.600;2023-04-24T03:54:33;4.70;;;2.67;;
59770;SDS011;45649;53.014;6.600;2023-04-24T03:56:59;4.53;;;2.70;;
59770;SDS011;45649;53.014;6.600;2023-04-24T03:59:25;2.80;;;2.70;;
59770;SDS011;45649;53.014;6.600;2023-04-24T04:01:50;2.87;;;2.77;;
59770;SDS011;45649;53.014;6.600;2023-04-24T04:04:16;3.10;;;3.00;;
59770;SDS011;45649;53.014;6.600;2023-04-24T04:06:42;3.17;;;2.97;;
59770;SDS011;45649;53.014;6.600;2023-04-24T04:09:09;3.43;;;3.33;;
59770;SDS011;45649;53.014;6.600;2023-04-24T04:11:35;3.50;;;3.20;;
59770;SDS011;45649;53.014;6.600;2023-04-24T04:14:01;3.77;;;3.57;;
59770;SDS011;45649;53.014;6.600;2023-04-24T04:16:27;3.87;;;3.67;;
59770;SDS011;45649;53.014;6.600;2023-04-24T04:18:53;4.07;;;3.80;;
59770;SDS011;45649;53.014;6.600;2023-04-24T04:21:18;3.90;;;3.60;;
59770;SDS011;45649;53.014;6.600;2023-04-24T04:23:44;4.50;;;4.20;;
59770;SDS011;45649;53.014;6.600;2023-04-24T04:26:10;4.53;;;4.13;;
59770;SDS011;45649;53.014;6.600;2023-04-24T04:28:37;4.03;;;3.83;;
59770;SDS011;45649;53.014;6.600;2023-04-24T04:31:04;4.23;;;3.93;;
59770;SDS011;45649;53.014;6.600;2023-04-24T04:33:30;3.50;;;3.30;;
59770;SDS011;45649;53.014;6.600;2023-04-24T04:35:56;3.67;;;3.37;;
59770;SDS011;45649;53.014;6.600;2023-04-24T04:38:23;2.70;;;2.60;;
59770;SDS011;45649;53.014;6.600;2023-04-24T04:40:49;3.00;;;2.90;;
59770;SDS011;45649;53.014;6.600;2023-04-24T04:43:15;2.60;;;2.50;;
59770;SDS011;45649;53.014;6.600;2023-04-24T04:45:41;1.93;;;1.93;;
59770;SDS011;45649;53.014;6.600;2023-04-24T04:48:08;2.07;;;1.97;;
59770;SDS011;45649;53.014;6.600;2023-04-24T04:50:37;1.90;;;1.80;;
59770;SDS011;45649;53.014;6.600;2023-04-24T04:53:03;1.50;;;1.50;;
59770;SDS011;45649;53.014;6.600;2023-04-24T04:55:29;1.20;;;1.20;;
59770;SDS011;45649;53.014;6.600;2023-04-24T04:57:55;1.10;;;1.10;;
59770;SDS011;45649;53.014;6.600;2023-04-24T05:00:21;1.10;;;1.10;;
59770;SDS011;45649;53.014;6.600;2023-04-24T05:02:50;1.07;;;1.07;;
59770;SDS011;45649;53.014;6.600;2023-04-24T05:05:16;1.23;;;1.10;;
59770;SDS011;45649;53.014;6.600;2023-04-24T05:07:43;0.97;;;0.93;;
59770;SDS011;45649;53.014;6.600;2023-04-24T05:10:09;0.97;;;0.97;;
59770;SDS011;45649;53.014;6.600;2023-04-24T05:12:34;1.70;;;1.13;;
59770;SDS011;45649;53.014;6.600;2023-04-24T05:15:00;1.00;;;1.00;;
59770;SDS011;45649;53.014;6.600;2023-04-24T05:17:26;1.10;;;1.10;;
59770;SDS011;45649;53.014;6.600;2023-04-24T05:19:52;1.40;;;1.30;;
59770;SDS011;45649;53.014;6.600;2023-04-24T05:22:17;1.50;;;1.40;;
59770;SDS011;45649;53.014;6.600;2023-04-24T05:24:45;1.43;;;1.20;;
59770;SDS011;45649;53.014;6.600;2023-04-24T05:27:12;1.30;;;1.27;;
59770;SDS011;45649;53.014;6.600;2023-04-24T05:29:38;1.70;;;1.30;;
59770;SDS011;45649;53.014;6.600;2023-04-24T05:32:05;1.20;;;1.20;;
59770;SDS011;45649;53.014;6.600;2023-04-24T05:34:31;1.83;;;1.73;;
59770;SDS011;45649;53.014;6.600;2023-04-24T05:36:57;1.50;;;1.50;;
59770;SDS011;45649;53.014;6.600;2023-04-24T05:39:22;1.50;;;1.50;;
59770;SDS011;45649;53.014;6.600;2023-04-24T05:41:50;1.87;;;1.77;;
59770;SDS011;45649;53.014;6.600;2023-04-24T05:44:16;1.60;;;1.60;;
59770;SDS011;45649;53.014;6.600;2023-04-24T05:46:42;1.70;;;1.60;;
59770;SDS011;45649;53.014;6.600;2023-04-24T05:49:07;1.70;;;1.70;;
59770;SDS011;45649;53.014;6.600;2023-04-24T05:51:33;1.60;;;1.60;;
59770;SDS011;45649;53.014;6.600;2023-04-24T05:53:59;1.53;;;1.53;;
59770;SDS011;45649;53.014;6.600;2023-04-24T05:56:26;1.50;;;1.50;;
59770;SDS011;45649;53.014;6.600;2023-04-24T05:58:51;1.90;;;1.80;;
59770;SDS011;45649;53.014;6.600;2023-04-24T06:01:17;1.60;;;1.60;;
59770;SDS011;45649;53.014;6.600;2023-04-24T06:03:44;1.60;;;1.60;;
59770;SDS011;45649;53.014;6.600;2023-04-24T06:06:10;1.80;;;1.70;;
59770;SDS011;45649;53.014;6.600;2023-04-24T06:08:36;1.73;;;1.63;;
59770;SDS011;45649;53.014;6.600;2023-04-24T06:11:01;1.97;;;1.87;;
59770;SDS011;45649;53.014;6.600;2023-04-24T06:13:27;2.27;;;1.70;;
59770;SDS011;45649;53.014;6.600;2023-04-24T06:15:53;1.80;;;1.70;;
59770;SDS011;45649;53.014;6.600;2023-04-24T06:18:19;1.90;;;1.80;;
59770;SDS011;45649;53.014;6.600;2023-04-24T06:20:45;2.10;;;2.00;;
59770;SDS011;45649;53.014;6.600;2023-04-24T06:23:11;1.80;;;1.70;;
59770;SDS011;45649;53.014;6.600;2023-04-24T06:25:37;1.07;;;1.07;;
59770;SDS011;45649;53.014;6.600;2023-04-24T06:28:03;1.00;;;1.00;;
59770;SDS011;45649;53.014;6.600;2023-04-24T06:30:29;1.20;;;1.20;;
59770;SDS011;45649;53.014;6.600;2023-04-24T06:32:55;1.93;;;1.50;;
59770;SDS011;45649;53.014;6.600;2023-04-24T06:35:21;1.50;;;1.40;;
59770;SDS011;45649;53.014;6.600;2023-04-24T06:37:47;1.80;;;1.70;;
59770;SDS011;45649;53.014;6.600;2023-04-24T06:40:13;2.30;;;2.07;;
59770;SDS011;45649;53.014;6.600;2023-04-24T06:42:39;2.50;;;2.30;;
59770;SDS011;45649;53.014;6.600;2023-04-24T06:45:05;2.83;;;2.10;;
59770;SDS011;45649;53.014;6.600;2023-04-24T06:47:31;3.00;;;2.80;;
59770;SDS011;45649;53.014;6.600;2023-04-24T06:49:57;3.00;;;2.70;;
59770;SDS011;45649;53.014;6.600;2023-04-24T06:52:23;2.87;;;2.67;;
59770;SDS011;45649;53.014;6.600;2023-04-24T06:54:48;3.10;;;2.83;;
59770;SDS011;45649;53.014;6.600;2023-04-24T06:57:14;3.27;;;3.07;;
59770;SDS011;45649;53.014;6.600;2023-04-24T06:59:41;3.57;;;3.30;;
59770;SDS011;45649;53.014;6.600;2023-04-24T07:02:07;3.40;;;3.20;;
59770;SDS011;45649;53.014;6.600;2023-04-24T07:04:33;3.40;;;3.20;;
59770;SDS011;45649;53.014;6.600;2023-04-24T07:06:59;3.90;;;3.30;;
59770;SDS011;45649;53.014;6.600;2023-04-24T07:09:25;3.80;;;3.50;;
59770;SDS011;45649;53.014;6.600;2023-04-24T07:11:51;3.50;;;3.20;;
59770;SDS011;45649;53.014;6.600;2023-04-24T07:14:17;3.40;;;2.90;;
59770;SDS011;45649;53.014;6.600;2023-04-24T07:16:43;3.97;;;3.10;;
59770;SDS011;45649;53.014;6.600;2023-04-24T07:19:10;5.97;;;3.10;;
59770;SDS011;45649;53.014;6.600;2023-04-24T07:21:36;3.43;;;3.13;;
59770;SDS011;45649;53.014;6.600;2023-04-24T07:24:02;4.07;;;3.00;;
59770;SDS011;45649;53.014;6.600;2023-04-24T07:26:29;3.70;;;3.10;;
59770;SDS011;45649;53.014;6.600;2023-04-24T07:28:55;3.03;;;2.87;;
59770;SDS011;45649;53.014;6.600;2023-04-24T07:31:21;3.07;;;2.77;;
59770;SDS011;45649;53.014;6.600;2023-04-24T07:33:47;2.77;;;2.50;;
59770;SDS011;45649;53.014;6.600;2023-04-24T07:36:13;1.90;;;1.80;;
59770;SDS011;45649;53.014;6.600;2023-04-24T07:38:44;1.87;;;1.70;;
59770;SDS011;45649;53.014;6.600;2023-04-24T07:41:10;2.03;;;1.90;;
59770;SDS011;45649;53.014;6.600;2023-04-24T07:43:37;2.10;;;1.97;;
59770;SDS011;45649;53.014;6.600;2023-04-24T07:46:03;2.37;;;2.10;;
59770;SDS011;45649;53.014;6.600;2023-04-24T07:48:28;3.40;;;2.17;;
59770;SDS011;45649;53.014;6.600;2023-04-24T07:50:54;2.90;;;1.97;;
59770;SDS011;45649;53.014;6.600;2023-04-24T07:53:20;2.90;;;2.07;;
59770;SDS011;45649;53.014;6.600;2023-04-24T07:55:45;2.37;;;2.10;;
59770;SDS011;45649;53.014;6.600;2023-04-24T07:58:11;2.73;;;2.30;;
59770;SDS011;45649;53.014;6.600;2023-04-24T08:00:37;3.17;;;2.10;;
59770;SDS011;45649;53.014;6.600;2023-04-24T08:03:03;3.90;;;1.90;;
59770;SDS011;45649;53.014;6.600;2023-04-24T08:05:29;3.20;;;2.33;;
59770;SDS011;45649;53.014;6.600;2023-04-24T08:07:54;3.30;;;1.90;;
59770;SDS011;45649;53.014;6.600;2023-04-24T08:10:21;4.63;;;2.43;;
59770;SDS011;45649;53.014;6.600;2023-04-24T08:12:48;4.47;;;2.50;;
59770;SDS011;45649;53.014;6.600;2023-04-24T08:15:14;6.00;;;3.03;;
59770;SDS011;45649;53.014;6.600;2023-04-24T08:17:40;4.17;;;3.77;;
59770;SDS011;45649;53.014;6.600;2023-04-24T08:20:05;8.27;;;5.33;;
59770;SDS011;45649;53.014;6.600;2023-04-24T08:22:35;11.23;;;8.03;;
59770;SDS011;45649;53.014;6.600;2023-04-24T08:25:01;13.07;;;8.10;;
59770;SDS011;45649;53.014;6.600;2023-04-24T08:27:27;11.37;;;8.57;;
59770;SDS011;45649;53.014;6.600;2023-04-24T08:29:53;12.00;;;8.70;;
59770;SDS011;45649;53.014;6.600;2023-04-24T08:32:19;11.97;;;9.87;;
59770;SDS011;45649;53.014;6.600;2023-04-24T08:34:45;12.17;;;9.33;;
59770;SDS011;45649;53.014;6.600;2023-04-24T08:37:11;17.33;;;13.23;;
59770;SDS011;45649;53.014;6.600;2023-04-24T08:39:37;15.13;;;11.80;;
59770;SDS011;45649;53.014;6.600;2023-04-24T08:42:04;16.40;;;11.90;;
59770;SDS011;45649;53.014;6.600;2023-04-24T08:44:33;17.63;;;12.17;;
59770;SDS011;45649;53.014;6.600;2023-04-24T08:47:00;17.57;;;11.73;;
59770;SDS011;45649;53.014;6.600;2023-04-24T08:49:27;17.57;;;12.30;;
59770;SDS011;45649;53.014;6.600;2023-04-24T08:51:54;14.50;;;11.67;;
59770;SDS011;45649;53.014;6.600;2023-04-24T08:54:20;16.23;;;12.13;;
59770;SDS011;45649;53.014;6.600;2023-04-24T08:56:47;17.77;;;12.43;;
59770;SDS011;45649;53.014;6.600;2023-04-24T08:59:16;16.63;;;10.87;;
59770;SDS011;45649;53.014;6.600;2023-04-24T09:01:42;14.77;;;12.20;;
59770;SDS011;45649;53.014;6.600;2023-04-24T09:04:10;17.17;;;12.03;;
59770;SDS011;45649;53.014;6.600;2023-04-24T09:06:39;18.90;;;11.47;;
59770;SDS011;45649;53.014;6.600;2023-04-24T09:09:05;18.40;;;12.47;;
59770;SDS011;45649;53.014;6.600;2023-04-24T09:11:32;16.93;;;11.97;;
59770;SDS011;45649;53.014;6.600;2023-04-24T09:13:58;20.30;;;12.40;;
59770;SDS011;45649;53.014;6.600;2023-04-24T09:16:25;17.70;;;13.40;;
59770;SDS011;45649;53.014;6.600;2023-04-24T09:18:51;18.43;;;13.33;;
59770;SDS011;45649;53.014;6.600;2023-04-24T09:21:18;16.63;;;13.53;;
59770;SDS011;45649;53.014;6.600;2023-04-24T09:23:46;17.13;;;13.17;;
59770;SDS011;45649;53.014;6.600;2023-04-24T09:26:14;16.87;;;14.33;;
59770;SDS011;45649;53.014;6.600;2023-04-24T09:28:40;15.97;;;12.77;;
59770;SDS011;45649;53.014;6.600;2023-04-24T09:33:59;14.33;;;12.50;;
59770;SDS011;45649;53.014;6.600;2023-04-24T09:36:31;14.80;;;11.43;;
59770;SDS011;45649;53.014;6.600;2023-04-24T09:39:02;13.47;;;11.83;;
59770;SDS011;45649;53.014;6.600;2023-04-24T09:44:16;15.33;;;11.30;;
59770;SDS011;45649;53.014;6.600;2023-04-24T09:46:44;12.37;;;11.00;;
59770;SDS011;45649;53.014;6.600;2023-04-24T09:49:14;13.80;;;10.63;;
59770;SDS011;45649;53.014;6.600;2023-04-24T09:51:41;11.97;;;9.30;;
59770;SDS011;45649;53.014;6.600;2023-04-24T09:54:13;10.70;;;9.67;;
59770;SDS011;45649;53.014;6.600;2023-04-24T09:56:47;13.77;;;8.87;;
59770;SDS011;45649;53.014;6.600;2023-04-24T09:59:17;8.70;;;7.73;;
59770;SDS011;45649;53.014;6.600;2023-04-24T10:01:44;10.23;;;7.30;;
59770;SDS011;45649;53.014;6.600;2023-04-24T10:04:23;8.97;;;6.77;;
59770;SDS011;45649;53.014;6.600;2023-04-24T10:06:51;9.73;;;6.57;;
59770;SDS011;45649;53.014;6.600;2023-04-24T10:09:21;8.97;;;6.50;;
59770;SDS011;45649;53.014;6.600;2023-04-24T10:11:49;11.50;;;6.60;;
59770;SDS011;45649;53.014;6.600;2023-04-24T10:14:19;11.67;;;6.37;;
59770;SDS011;45649;53.014;6.600;2023-04-24T10:16:49;12.80;;;6.50;;
59770;SDS011;45649;53.014;6.600;2023-04-24T10:19:17;9.90;;;6.30;;
59770;SDS011;45649;53.014;6.600;2023-04-24T10:21:46;12.77;;;6.17;;
59770;SDS011;45649;53.014;6.600;2023-04-24T10:24:16;10.70;;;6.67;;
59770;SDS011;45649;53.014;6.600;2023-04-24T10:26:43;11.07;;;6.23;;
59770;SDS011;45649;53.014;6.600;2023-04-24T10:29:11;9.17;;;5.70;;
59770;SDS011;45649;53.014;6.600;2023-04-24T10:31:38;9.00;;;4.80;;
59770;SDS011;45649;53.014;6.600;2023-04-24T10:34:05;9.87;;;5.03;;
59770;SDS011;45649;53.014;6.600;2023-04-24T10:36:32;10.57;;;4.63;;
59770;SDS011;45649;53.014;6.600;2023-04-24T10:39:00;9.20;;;4.30;;
59770;SDS011;45649;53.014;6.600;2023-04-24T10:41:29;8.23;;;4.30;;
59770;SDS011;45649;53.014;6.600;2023-04-24T10:44:05;8.90;;;4.07;;
59770;SDS011;45649;53.014;6.600;2023-04-24T10:46:32;10.63;;;3.90;;
59770;SDS011;45649;53.014;6.600;2023-04-24T10:48:58;6.20;;;3.43;;
59770;SDS011;45649;53.014;6.600;2023-04-24T10:51:26;8.00;;;3.97;;
59770;SDS011;45649;53.014;6.600;2023-04-24T11:00:09;7.80;;;3.03;;
59770;SDS011;45649;53.014;6.600;2023-04-24T11:02:38;5.43;;;2.83;;
59770;SDS011;45649;53.014;6.600;2023-04-24T11:05:05;7.50;;;2.90;;
59770;SDS011;45649;53.014;6.600;2023-04-24T11:10:44;7.47;;;2.73;;
59770;SDS011;45649;53.014;6.600;2023-04-24T11:13:15;7.63;;;2.93;;
59770;SDS011;45649;53.014;6.600;2023-04-24T11:15:41;5.33;;;2.40;;
59770;SDS011;45649;53.014;6.600;2023-04-24T11:18:14;12.73;;;3.23;;
59770;SDS011;45649;53.014;6.600;2023-04-24T11:20:44;5.53;;;2.83;;
59770;SDS011;45649;53.014;6.600;2023-04-24T11:23:11;5.57;;;2.70;;
59770;SDS011;45649;53.014;6.600;2023-04-24T11:25:38;4.47;;;2.40;;
59770;SDS011;45649;53.014;6.600;2023-04-24T11:28:04;6.83;;;2.60;;
59770;SDS011;45649;53.014;6.600;2023-04-24T11:30:31;6.77;;;2.67;;
59770;SDS011;45649;53.014;6.600;2023-04-24T11:33:05;8.13;;;2.60;;
59770;SDS011;45649;53.014;6.600;2023-04-24T11:35:34;6.47;;;2.60;;
59770;SDS011;45649;53.014;6.600;2023-04-24T11:38:04;6.47;;;2.53;;
59770;SDS011;45649;53.014;6.600;2023-04-24T11:40:30;4.07;;;2.47;;
59770;SDS011;45649;53.014;6.600;2023-04-24T11:42:56;6.97;;;2.80;;
59770;SDS011;45649;53.014;6.600;2023-04-24T11:45:26;6.27;;;2.67;;
59770;SDS011;45649;53.014;6.600;2023-04-24T11:47:55;5.77;;;2.50;;
59770;SDS011;45649;53.014;6.600;2023-04-24T11:50:23;6.97;;;2.70;;
59770;SDS011;45649;53.014;6.600;2023-04-24T11:52:51;5.57;;;2.40;;
59770;SDS011;45649;53.014;6.600;2023-04-24T11:57:44;5.43;;;2.30;;
59770;SDS011;45649;53.014;6.600;2023-04-24T12:00:18;5.00;;;2.30;;
59770;SDS011;45649;53.014;6.600;2023-04-24T12:02:45;3.30;;;2.13;;
59770;SDS011;45649;53.014;6.600;2023-04-24T12:05:27;5.57;;;2.10;;
59770;SDS011;45649;53.014;6.600;2023-04-24T12:07:56;4.37;;;2.00;;
59770;SDS011;45649;53.014;6.600;2023-04-24T12:10:25;5.43;;;2.10;;
59770;SDS011;45649;53.014;6.600;2023-04-24T12:12:53;3.93;;;2.07;;
59770;SDS011;45649;53.014;6.600;2023-04-24T12:15:20;3.53;;;2.10;;
59770;SDS011;45649;53.014;6.600;2023-04-24T12:17:46;4.17;;;1.90;;
59770;SDS011;45649;53.014;6.600;2023-04-24T12:20:13;5.00;;;2.00;;
59770;SDS011;45649;53.014;6.600;2023-04-24T12:22:52;4.57;;;2.20;;
59770;SDS011;45649;53.014;6.600;2023-04-24T12:25:20;4.50;;;2.13;;
59770;SDS011;45649;53.014;6.600;2023-04-24T12:28:14;4.70;;;2.10;;
59770;SDS011;45649;53.014;6.600;2023-04-24T12:30:57;6.33;;;2.33;;
59770;SDS011;45649;53.014;6.600;2023-04-24T12:33:25;3.63;;;2.13;;
59770;SDS011;45649;53.014;6.600;2023-04-24T12:35:52;5.17;;;2.30;;
59770;SDS011;45649;53.014;6.600;2023-04-24T12:38:25;4.63;;;2.00;;
59770;SDS011;45649;53.014;6.600;2023-04-24T12:41:01;5.10;;;2.20;;
59770;SDS011;45649;53.014;6.600;2023-04-24T12:43:29;4.80;;;1.80;;
59770;SDS011;45649;53.014;6.600;2023-04-24T12:45:54;5.03;;;1.93;;
59770;SDS011;45649;53.014;6.600;2023-04-24T12:48:20;4.37;;;1.90;;
59770;SDS011;45649;53.014;6.600;2023-04-24T12:50:47;9.27;;;2.20;;
59770;SDS011;45649;53.014;6.600;2023-04-24T12:53:13;6.63;;;2.33;;
59770;SDS011;45649;53.014;6.600;2023-04-24T12:55:40;5.50;;;2.03;;
59770;SDS011;45649;53.014;6.600;2023-04-24T12:58:05;3.17;;;1.83;;
59770;SDS011;45649;53.014;6.600;2023-04-24T13:00:31;5.67;;;2.27;;
59770;SDS011;45649;53.014;6.600;2023-04-24T13:02:58;4.80;;;2.17;;
59770;SDS011;45649;53.014;6.600;2023-04-24T13:05:23;5.47;;;2.13;;
59770;SDS011;45649;53.014;6.600;2023-04-24T13:07:50;4.97;;;2.00;;
59770;SDS011;45649;53.014;6.600;2023-04-24T13:10:15;6.97;;;2.00;;
59770;SDS011;45649;53.014;6.600;2023-04-24T13:12:41;5.37;;;2.13;;
59770;SDS011;45649;53.014;6.600;2023-04-24T13:15:10;7.13;;;1.80;;
59770;SDS011;45649;53.014;6.600;2023-04-24T13:17:36;4.13;;;1.57;;
59770;SDS011;45649;53.014;6.600;2023-04-24T13:20:02;3.33;;;1.60;;
59770;SDS011;45649;53.014;6.600;2023-04-24T13:22:27;1.83;;;1.23;;
59770;SDS011;45649;53.014;6.600;2023-04-24T13:24:53;5.23;;;1.87;;
59770;SDS011;45649;53.014;6.600;2023-04-24T13:27:19;3.53;;;1.40;;
59770;SDS011;45649;53.014;6.600;2023-04-24T13:29:45;6.83;;;1.73;;
59770;SDS011;45649;53.014;6.600;2023-04-24T13:32:11;5.23;;;1.47;;
59770;SDS011;45649;53.014;6.600;2023-04-24T13:34:37;3.30;;;1.53;;
59770;SDS011;45649;53.014;6.600;2023-04-24T13:37:03;4.57;;;1.30;;
59770;SDS011;45649;53.014;6.600;2023-04-24T13:39:29;4.47;;;1.23;;
59770;SDS011;45649;53.014;6.600;2023-04-24T13:41:55;3.83;;;1.23;;
59770;SDS011;45649;53.014;6.600;2023-04-24T13:44:21;2.07;;;1.10;;
59770;SDS011;45649;53.014;6.600;2023-04-24T13:46:48;1.80;;;1.30;;
59770;SDS011;45649;53.014;6.600;2023-04-24T13:49:15;4.03;;;1.13;;
59770;SDS011;45649;53.014;6.600;2023-04-24T13:51:41;1.70;;;1.30;;
59770;SDS011;45649;53.014;6.600;2023-04-24T13:54:07;1.87;;;1.10;;
59770;SDS011;45649;53.014;6.600;2023-04-24T13:56:33;1.80;;;1.07;;
59770;SDS011;45649;53.014;6.600;2023-04-24T13:58:59;5.40;;;1.30;;
59770;SDS011;45649;53.014;6.600;2023-04-24T14:01:25;1.67;;;1.07;;
59770;SDS011;45649;53.014;6.600;2023-04-24T14:03:51;3.70;;;1.10;;
59770;SDS011;45649;53.014;6.600;2023-04-24T14:06:18;2.10;;;1.17;;
59770;SDS011;45649;53.014;6.600;2023-04-24T14:08:44;3.93;;;1.43;;
59770;SDS011;45649;53.014;6.600;2023-04-24T14:11:10;3.53;;;1.30;;
59770;SDS011;45649;53.014;6.600;2023-04-24T14:13:36;2.73;;;1.40;;
59770;SDS011;45649;53.014;6.600;2023-04-24T14:16:03;2.90;;;1.23;;
59770;SDS011;45649;53.014;6.600;2023-04-24T14:18:29;2.90;;;1.40;;
59770;SDS011;45649;53.014;6.600;2023-04-24T14:20:55;4.53;;;1.57;;
59770;SDS011;45649;53.014;6.600;2023-04-24T14:23:22;4.63;;;1.50;;
59770;SDS011;45649;53.014;6.600;2023-04-24T14:25:48;8.73;;;2.00;;
59770;SDS011;45649;53.014;6.600;2023-04-24T14:28:19;4.67;;;1.50;;
59770;SDS011;45649;53.014;6.600;2023-04-24T14:30:47;6.10;;;2.13;;
59770;SDS011;45649;53.014;6.600;2023-04-24T14:33:13;5.87;;;2.13;;
59770;SDS011;45649;53.014;6.600;2023-04-24T14:35:40;5.40;;;2.10;;
59770;SDS011;45649;53.014;6.600;2023-04-24T14:38:09;7.53;;;2.27;;
59770;SDS011;45649;53.014;6.600;2023-04-24T14:40:35;6.63;;;2.50;;
59770;SDS011;45649;53.014;6.600;2023-04-24T14:43:08;7.80;;;2.50;;
59770;SDS011;45649;53.014;6.600;2023-04-24T14:45:33;8.40;;;2.57;;
59770;SDS011;45649;53.014;6.600;2023-04-24T14:47:59;8.37;;;2.83;;
59770;SDS011;45649;53.014;6.600;2023-04-24T14:50:25;9.13;;;3.00;;
59770;SDS011;45649;53.014;6.600;2023-04-24T14:52:54;9.80;;;2.87;;
59770;SDS011;45649;53.014;6.600;2023-04-24T14:55:24;11.40;;;2.80;;
59770;SDS011;45649;53.014;6.600;2023-04-24T14:57:53;8.33;;;2.47;;
59770;SDS011;45649;53.014;6.600;2023-04-24T15:00:18;7.70;;;2.57;;